sensor_id;sensor_type;location;lat;lon;timestamp;temperature;humidity
8888;DHT22;4480;52.370;9.748;2024-02-14T00:00:02;6.50;99.90
8888;DHT22;4480;52.370;9.748;2024-02-14T00:02:29;6.50;99.90
8888;DHT22;4480;52.370;9.748;2024-02-14T00:04:56;6.50;99.90
8888;DHT22;4480;52.370;9.748;2024-02-14T00:07:23;6.50;99.90
8888;DHT22;4480;52.370;9.748;2024-02-14T00:09:52;6.50;99.90
8888;DHT22;4480;52.370;9.748;2024-02-14T00:12:20;6.40;99.90
8888;DHT22;4480;52.370;9.748;2024-02-14T00:14:49;6.40;99.90
8888;DHT22;4480;52.370;9.748;2024-02-14T00:17:16;6.40;99.90
8888;DHT22;4480;52.370;9.748;2024-02-14T00:19:43;6.40;99.90
8888;DHT22;4480;52.370;9.748;2024-02-14T00:22:10;6.40;99.90
8888;DHT22;4480;52.370;9.748;2024-02-14T00:24:36;6.40;99.90
8888;DHT22;4480;52.370;9.748;2024-02-14T00:27:03;6.40;99.90
8888;DHT22;4480;52.370;9.748;2024-02-14T00:29:31;6.40;99.90
8888;DHT22;4480;52.370;9.748;2024-02-14T00:31:59;6.40;99.90
8888;DHT22;4480;52.370;9.748;2024-02-14T00:34:26;6.50;99.90
8888;DHT22;4480;52.370;9.748;2024-02-14T00:36:53;6.50;99.90
8888;DHT22;4480;52.370;9.748;2024-02-14T00:39:20;6.50;99.90
8888;DHT22;4480;52.370;9.748;2024-02-14T00:41:47;6.50;99.90
8888;DHT22;4480;52.370;9.748;2024-02-14T00:44:14;6.50;99.90
8888;DHT22;4480;52.370;9.748;2024-02-14T00:46:43;6.50;99.90
8888;DHT22;4480;52.370;9.748;2024-02-14T00:49:10;6.60;99.90
8888;DHT22;4480;52.370;9.748;2024-02-14T00:51:38;6.60;99.90
8888;DHT22;4480;52.370;9.748;2024-02-14T00:54:05;6.60;99.90
8888;DHT22;4480;52.370;9.748;2024-02-14T00:56:32;6.60;99.90
8888;DHT22;4480;52.370;9.748;2024-02-14T00:58:59;6.60;99.90
8888;DHT22;4480;52.370;9.748;2024-02-14T01:01:26;6.60;99.90
8888;DHT22;4480;52.370;9.748;2024-02-14T01:03:54;6.60;99.90
8888;DHT22;4480;52.370;9.748;2024-02-14T01:06:21;6.60;99.90
8888;DHT22;4480;52.370;9.748;2024-02-14T01:08:48;6.60;99.90
8888;DHT22;4480;52.370;9.748;2024-02-14T01:11:15;6.60;99.90
8888;DHT22;4480;52.370;9.748;2024-02-14T01:13:42;6.60;99.90
8888;DHT22;4480;52.370;9.748;2024-02-14T01:16:08;6.70;99.90
8888;DHT22;4480;52.370;9.748;2024-02-14T01:18:35;6.70;99.90
8888;DHT22;4480;52.370;9.748;2024-02-14T01:21:04;6.70;99.90
8888;DHT22;4480;52.370;9.748;2024-02-14T01:23:31;6.70;99.90
8888;DHT22;4480;52.370;9.748;2024-02-14T01:25:58;6.70;99.90
8888;DHT22;4480;52.370;9.748;2024-02-14T01:28:24;6.80;99.90
8888;DHT22;4480;52.370;9.748;2024-02-14T01:30:52;6.80;99.90
8888;DHT22;4480;52.370;9.748;2024-02-14T01:33:18;6.80;99.90
8888;DHT22;4480;52.370;9.748;2024-02-14T01:35:45;6.90;99.90
8888;DHT22;4480;52.370;9.748;2024-02-14T01:38:13;6.90;99.90
8888;DHT22;4480;52.370;9.748;2024-02-14T01:40:42;6.90;99.90
8888;DHT22;4480;52.370;9.748;2024-02-14T01:43:10;7.00;99.90
8888;DHT22;4480;52.370;9.748;2024-02-14T01:45:37;7.00;99.90
8888;DHT22;4480;52.370;9.748;2024-02-14T01:48:05;7.00;99.90
8888;DHT22;4480;52.370;9.748;2024-02-14T01:50:33;7.00;99.90
8888;DHT22;4480;52.370;9.748;2024-02-14T01:53:00;7.00;99.90
8888;DHT22;4480;52.370;9.748;2024-02-14T01:55:29;7.00;99.90
8888;DHT22;4480;52.370;9.748;2024-02-14T01:57:56;7.00;99.90
8888;DHT22;4480;52.370;9.748;2024-02-14T02:00:23;7.10;99.90
8888;DHT22;4480;52.370;9.748;2024-02-14T02:02:50;7.10;99.90
8888;DHT22;4480;52.370;9.748;2024-02-14T02:05:17;7.10;99.90
8888;DHT22;4480;52.370;9.748;2024-02-14T02:07:44;7.10;99.90
8888;DHT22;4480;52.370;9.748;2024-02-14T02:10:14;7.10;99.90
8888;DHT22;4480;52.370;9.748;2024-02-14T02:12:42;7.10;99.90
8888;DHT22;4480;52.370;9.748;2024-02-14T02:15:09;7.10;99.90
8888;DHT22;4480;52.370;9.748;2024-02-14T02:17:38;7.10;99.90
8888;DHT22;4480;52.370;9.748;2024-02-14T02:20:06;7.10;99.90
8888;DHT22;4480;52.370;9.748;2024-02-14T02:22:34;7.10;99.90
8888;DHT22;4480;52.370;9.748;2024-02-14T02:25:03;7.10;99.90
8888;DHT22;4480;52.370;9.748;2024-02-14T02:27:33;7.00;99.90
8888;DHT22;4480;52.370;9.748;2024-02-14T02:30:04;7.00;99.90
8888;DHT22;4480;52.370;9.748;2024-02-14T02:32:31;7.00;99.90
8888;DHT22;4480;52.370;9.748;2024-02-14T02:34:57;7.00;99.90
8888;DHT22;4480;52.370;9.748;2024-02-14T02:37:24;7.00;99.90
8888;DHT22;4480;52.370;9.748;2024-02-14T02:39:52;7.00;99.90
8888;DHT22;4480;52.370;9.748;2024-02-14T02:42:20;6.90;99.90
8888;DHT22;4480;52.370;9.748;2024-02-14T02:44:49;6.90;99.90
8888;DHT22;4480;52.370;9.748;2024-02-14T02:47:16;6.90;99.90
8888;DHT22;4480;52.370;9.748;2024-02-14T02:49:43;6.90;99.90
8888;DHT22;4480;52.370;9.748;2024-02-14T02:52:10;6.80;99.90
8888;DHT22;4480;52.370;9.748;2024-02-14T02:54:37;6.80;99.90
8888;DHT22;4480;52.370;9.748;2024-02-14T02:57:06;6.80;99.90
8888;DHT22;4480;52.370;9.748;2024-02-14T02:59:34;6.80;99.90
8888;DHT22;4480;52.370;9.748;2024-02-14T03:02:01;6.80;99.90
8888;DHT22;4480;52.370;9.748;2024-02-14T03:04:28;6.80;99.90
8888;DHT22;4480;52.370;9.748;2024-02-14T03:06:57;6.80;99.90
8888;DHT22;4480;52.370;9.748;2024-02-14T03:09:24;6.80;99.90
8888;DHT22;4480;52.370;9.748;2024-02-14T03:11:53;6.80;99.90
8888;DHT22;4480;52.370;9.748;2024-02-14T03:14:22;6.80;99.90
8888;DHT22;4480;52.370;9.748;2024-02-14T03:16:50;6.80;99.90
8888;DHT22;4480;52.370;9.748;2024-02-14T03:19:17;6.80;99.90
8888;DHT22;4480;52.370;9.748;2024-02-14T03:21:44;6.80;99.90
8888;DHT22;4480;52.370;9.748;2024-02-14T03:24:12;6.90;99.90
8888;DHT22;4480;52.370;9.748;2024-02-14T03:26:39;6.80;99.90
8888;DHT22;4480;52.370;9.748;2024-02-14T03:29:07;6.90;99.90
8888;DHT22;4480;52.370;9.748;2024-02-14T03:31:34;6.90;99.90
8888;DHT22;4480;52.370;9.748;2024-02-14T03:34:02;6.90;99.90
8888;DHT22;4480;52.370;9.748;2024-02-14T03:36:29;6.90;99.90
8888;DHT22;4480;52.370;9.748;2024-02-14T03:38:56;6.90;99.90
8888;DHT22;4480;52.370;9.748;2024-02-14T03:41:23;6.90;99.90
8888;DHT22;4480;52.370;9.748;2024-02-14T03:43:49;6.90;99.90
8888;DHT22;4480;52.370;9.748;2024-02-14T03:46:18;6.90;99.90
8888;DHT22;4480;52.370;9.748;2024-02-14T03:48:46;6.90;99.90
8888;DHT22;4480;52.370;9.748;2024-02-14T03:51:15;6.90;99.90
8888;DHT22;4480;52.370;9.748;2024-02-14T03:53:42;7.00;99.90
8888;DHT22;4480;52.370;9.748;2024-02-14T03:56:09;7.00;99.90
8888;DHT22;4480;52.370;9.748;2024-02-14T03:58:38;7.00;99.90
8888;DHT22;4480;52.370;9.748;2024-02-14T04:01:05;7.00;99.90
8888;DHT22;4480;52.370;9.748;2024-02-14T04:03:32;7.00;99.90
8888;DHT22;4480;52.370;9.748;2024-02-14T04:05:58;7.00;99.90
8888;DHT22;4480;52.370;9.748;2024-02-14T04:08:27;7.10;99.90
8888;DHT22;4480;52.370;9.748;2024-02-14T04:13:10;7.00;99.90
8888;DHT22;4480;52.370;9.748;2024-02-14T04:15:37;7.00;99.90
8888;DHT22;4480;52.370;9.748;2024-02-14T04:18:04;7.00;99.90
8888;DHT22;4480;52.370;9.748;2024-02-14T04:20:31;7.10;99.90
8888;DHT22;4480;52.370;9.748;2024-02-14T04:22:58;7.10;99.90
8888;DHT22;4480;52.370;9.748;2024-02-14T04:25:25;7.10;99.90
8888;DHT22;4480;52.370;9.748;2024-02-14T04:27:52;7.10;99.90
8888;DHT22;4480;52.370;9.748;2024-02-14T04:30:20;7.20;99.90
8888;DHT22;4480;52.370;9.748;2024-02-14T04:32:46;7.20;99.90
8888;DHT22;4480;52.370;9.748;2024-02-14T04:35:14;7.20;99.90
8888;DHT22;4480;52.370;9.748;2024-02-14T04:37:41;7.20;99.90
8888;DHT22;4480;52.370;9.748;2024-02-14T04:40:12;7.20;99.90
8888;DHT22;4480;52.370;9.748;2024-02-14T04:42:39;7.20;99.90
8888;DHT22;4480;52.370;9.748;2024-02-14T04:45:07;7.10;99.90
8888;DHT22;4480;52.370;9.748;2024-02-14T04:47:35;7.10;99.90
8888;DHT22;4480;52.370;9.748;2024-02-14T04:50:02;7.00;99.90
8888;DHT22;4480;52.370;9.748;2024-02-14T04:52:29;7.00;99.90
8888;DHT22;4480;52.370;9.748;2024-02-14T04:54:56;6.90;99.90
8888;DHT22;4480;52.370;9.748;2024-02-14T04:57:23;6.90;99.90
8888;DHT22;4480;52.370;9.748;2024-02-14T04:59:50;6.90;99.90
8888;DHT22;4480;52.370;9.748;2024-02-14T05:02:17;6.90;99.90
8888;DHT22;4480;52.370;9.748;2024-02-14T05:04:45;6.90;99.90
8888;DHT22;4480;52.370;9.748;2024-02-14T05:07:12;6.90;99.90
8888;DHT22;4480;52.370;9.748;2024-02-14T05:09:39;6.90;99.90
8888;DHT22;4480;52.370;9.748;2024-02-14T05:12:05;6.90;99.90
8888;DHT22;4480;52.370;9.748;2024-02-14T05:14:38;6.90;99.90
8888;DHT22;4480;52.370;9.748;2024-02-14T05:17:06;6.90;99.90
8888;DHT22;4480;52.370;9.748;2024-02-14T05:19:33;7.00;99.90
8888;DHT22;4480;52.370;9.748;2024-02-14T05:22:01;6.90;99.90
8888;DHT22;4480;52.370;9.748;2024-02-14T05:24:28;6.90;99.90
8888;DHT22;4480;52.370;9.748;2024-02-14T05:26:54;6.90;99.90
8888;DHT22;4480;52.370;9.748;2024-02-14T05:29:21;6.90;99.90
8888;DHT22;4480;52.370;9.748;2024-02-14T05:31:48;6.90;99.90
8888;DHT22;4480;52.370;9.748;2024-02-14T05:34:15;7.00;99.90
8888;DHT22;4480;52.370;9.748;2024-02-14T05:36:41;7.00;99.90
8888;DHT22;4480;52.370;9.748;2024-02-14T05:39:12;6.90;99.90
8888;DHT22;4480;52.370;9.748;2024-02-14T05:41:41;7.00;99.90
8888;DHT22;4480;52.370;9.748;2024-02-14T05:44:08;7.00;99.90
8888;DHT22;4480;52.370;9.748;2024-02-14T05:46:35;7.00;99.90
8888;DHT22;4480;52.370;9.748;2024-02-14T05:49:01;7.10;99.90
8888;DHT22;4480;52.370;9.748;2024-02-14T05:51:29;7.10;99.90
8888;DHT22;4480;52.370;9.748;2024-02-14T05:53:55;7.20;99.90
8888;DHT22;4480;52.370;9.748;2024-02-14T05:56:23;7.20;99.90
8888;DHT22;4480;52.370;9.748;2024-02-14T05:58:50;7.20;99.90
8888;DHT22;4480;52.370;9.748;2024-02-14T06:01:18;7.20;99.90
8888;DHT22;4480;52.370;9.748;2024-02-14T06:03:44;7.30;99.90
8888;DHT22;4480;52.370;9.748;2024-02-14T06:06:11;7.30;99.90
8888;DHT22;4480;52.370;9.748;2024-02-14T06:08:38;7.30;99.90
8888;DHT22;4480;52.370;9.748;2024-02-14T06:11:04;7.30;99.90
8888;DHT22;4480;52.370;9.748;2024-02-14T06:13:33;7.30;99.90
8888;DHT22;4480;52.370;9.748;2024-02-14T06:16:01;7.30;99.90
8888;DHT22;4480;52.370;9.748;2024-02-14T06:18:28;7.30;99.90
8888;DHT22;4480;52.370;9.748;2024-02-14T06:20:54;7.30;99.90
8888;DHT22;4480;52.370;9.748;2024-02-14T06:23:21;7.30;99.90
8888;DHT22;4480;52.370;9.748;2024-02-14T06:25:48;7.30;99.90
8888;DHT22;4480;52.370;9.748;2024-02-14T06:28:14;7.30;99.90
8888;DHT22;4480;52.370;9.748;2024-02-14T06:30:43;7.30;99.90
8888;DHT22;4480;52.370;9.748;2024-02-14T06:33:09;7.40;99.90
8888;DHT22;4480;52.370;9.748;2024-02-14T06:35:36;7.40;99.90
8888;DHT22;4480;52.370;9.748;2024-02-14T06:38:03;7.40;99.90
8888;DHT22;4480;52.370;9.748;2024-02-14T06:40:31;7.40;99.90
8888;DHT22;4480;52.370;9.748;2024-02-14T06:42:58;7.40;99.90
8888;DHT22;4480;52.370;9.748;2024-02-14T06:45:25;7.40;99.90
8888;DHT22;4480;52.370;9.748;2024-02-14T06:47:54;7.40;99.90
8888;DHT22;4480;52.370;9.748;2024-02-14T06:50:21;7.40;99.90
8888;DHT22;4480;52.370;9.748;2024-02-14T06:52:50;7.40;99.90
8888;DHT22;4480;52.370;9.748;2024-02-14T06:55:17;7.50;99.90
8888;DHT22;4480;52.370;9.748;2024-02-14T06:57:44;7.50;99.90
8888;DHT22;4480;52.370;9.748;2024-02-14T07:00:12;7.40;99.90
8888;DHT22;4480;52.370;9.748;2024-02-14T07:02:39;7.50;99.90
8888;DHT22;4480;52.370;9.748;2024-02-14T07:05:07;7.50;99.90
8888;DHT22;4480;52.370;9.748;2024-02-14T07:07:38;7.50;99.90
8888;DHT22;4480;52.370;9.748;2024-02-14T07:10:05;7.50;99.90
8888;DHT22;4480;52.370;9.748;2024-02-14T07:12:32;7.50;99.90
8888;DHT22;4480;52.370;9.748;2024-02-14T07:15:01;7.50;99.90
8888;DHT22;4480;52.370;9.748;2024-02-14T07:17:29;7.50;99.90
8888;DHT22;4480;52.370;9.748;2024-02-14T07:19:56;7.50;99.90
8888;DHT22;4480;52.370;9.748;2024-02-14T07:22:24;7.50;99.90
8888;DHT22;4480;52.370;9.748;2024-02-14T07:24:51;7.60;99.90
8888;DHT22;4480;52.370;9.748;2024-02-14T07:27:19;7.60;99.90
8888;DHT22;4480;52.370;9.748;2024-02-14T07:29:46;7.60;99.90
8888;DHT22;4480;52.370;9.748;2024-02-14T07:32:13;7.60;99.90
8888;DHT22;4480;52.370;9.748;2024-02-14T07:34:40;7.60;99.90
8888;DHT22;4480;52.370;9.748;2024-02-14T07:37:07;7.60;99.90
8888;DHT22;4480;52.370;9.748;2024-02-14T07:39:35;7.70;99.90
8888;DHT22;4480;52.370;9.748;2024-02-14T07:42:02;7.70;99.90
8888;DHT22;4480;52.370;9.748;2024-02-14T07:44:29;7.60;99.90
8888;DHT22;4480;52.370;9.748;2024-02-14T07:46:56;7.60;99.90
8888;DHT22;4480;52.370;9.748;2024-02-14T07:49:23;7.70;99.90
8888;DHT22;4480;52.370;9.748;2024-02-14T07:51:49;7.70;99.90
8888;DHT22;4480;52.370;9.748;2024-02-14T07:54:16;7.70;99.90
8888;DHT22;4480;52.370;9.748;2024-02-14T07:56:45;7.70;99.90
8888;DHT22;4480;52.370;9.748;2024-02-14T07:59:12;7.70;99.90
8888;DHT22;4480;52.370;9.748;2024-02-14T08:01:39;7.70;99.90
8888;DHT22;4480;52.370;9.748;2024-02-14T08:04:06;7.80;99.90
8888;DHT22;4480;52.370;9.748;2024-02-14T08:06:32;7.80;99.90
8888;DHT22;4480;52.370;9.748;2024-02-14T08:08:59;7.80;99.90
8888;DHT22;4480;52.370;9.748;2024-02-14T08:11:28;7.90;99.90
8888;DHT22;4480;52.370;9.748;2024-02-14T08:13:56;7.90;99.90
8888;DHT22;4480;52.370;9.748;2024-02-14T08:16:23;7.90;99.90
8888;DHT22;4480;52.370;9.748;2024-02-14T08:18:50;8.00;99.90
8888;DHT22;4480;52.370;9.748;2024-02-14T08:21:24;8.00;99.90
8888;DHT22;4480;52.370;9.748;2024-02-14T08:23:50;8.00;99.90
8888;DHT22;4480;52.370;9.748;2024-02-14T08:26:17;8.00;99.90
8888;DHT22;4480;52.370;9.748;2024-02-14T08:28:44;8.00;99.90
8888;DHT22;4480;52.370;9.748;2024-02-14T08:31:14;8.00;99.90
8888;DHT22;4480;52.370;9.748;2024-02-14T08:33:40;8.10;99.90
8888;DHT22;4480;52.370;9.748;2024-02-14T08:36:08;8.10;99.90
8888;DHT22;4480;52.370;9.748;2024-02-14T08:38:35;8.10;99.90
8888;DHT22;4480;52.370;9.748;2024-02-14T08:41:02;8.20;99.90
8888;DHT22;4480;52.370;9.748;2024-02-14T08:43:29;8.20;99.90
8888;DHT22;4480;52.370;9.748;2024-02-14T08:45:56;8.30;99.90
8888;DHT22;4480;52.370;9.748;2024-02-14T08:48:24;8.30;99.90
8888;DHT22;4480;52.370;9.748;2024-02-14T08:50:52;8.30;99.90
8888;DHT22;4480;52.370;9.748;2024-02-14T08:53:19;8.30;99.90
8888;DHT22;4480;52.370;9.748;2024-02-14T08:55:46;8.30;99.90
8888;DHT22;4480;52.370;9.748;2024-02-14T08:58:13;8.30;99.90
8888;DHT22;4480;52.370;9.748;2024-02-14T09:00:39;8.30;99.90
8888;DHT22;4480;52.370;9.748;2024-02-14T09:03:06;8.40;99.90
8888;DHT22;4480;52.370;9.748;2024-02-14T09:05:35;8.30;99.90
8888;DHT22;4480;52.370;9.748;2024-02-14T09:08:04;8.30;99.90
8888;DHT22;4480;52.370;9.748;2024-02-14T09:10:31;8.40;99.90
8888;DHT22;4480;52.370;9.748;2024-02-14T09:12:58;8.40;99.90
8888;DHT22;4480;52.370;9.748;2024-02-14T09:15:26;8.40;99.90
8888;DHT22;4480;52.370;9.748;2024-02-14T09:17:53;8.50;99.90
8888;DHT22;4480;52.370;9.748;2024-02-14T09:20:20;8.50;99.90
8888;DHT22;4480;52.370;9.748;2024-02-14T09:22:48;8.50;99.90
8888;DHT22;4480;52.370;9.748;2024-02-14T09:25:15;8.60;99.90
8888;DHT22;4480;52.370;9.748;2024-02-14T09:27:42;8.60;99.90
8888;DHT22;4480;52.370;9.748;2024-02-14T09:30:10;8.60;99.90
8888;DHT22;4480;52.370;9.748;2024-02-14T09:32:37;8.70;99.90
8888;DHT22;4480;52.370;9.748;2024-02-14T09:35:04;8.70;99.90
8888;DHT22;4480;52.370;9.748;2024-02-14T09:37:32;8.80;99.90
8888;DHT22;4480;52.370;9.748;2024-02-14T09:40:00;8.80;99.90
8888;DHT22;4480;52.370;9.748;2024-02-14T09:42:31;8.90;99.90
8888;DHT22;4480;52.370;9.748;2024-02-14T09:45:01;9.00;99.90
8888;DHT22;4480;52.370;9.748;2024-02-14T09:47:30;9.10;99.90
8888;DHT22;4480;52.370;9.748;2024-02-14T09:50:00;9.20;99.90
8888;DHT22;4480;52.370;9.748;2024-02-14T09:52:29;9.30;99.90
8888;DHT22;4480;52.370;9.748;2024-02-14T09:55:00;9.50;99.90
8888;DHT22;4480;52.370;9.748;2024-02-14T09:57:31;9.60;99.90
8888;DHT22;4480;52.370;9.748;2024-02-14T09:59:59;9.60;99.90
8888;DHT22;4480;52.370;9.748;2024-02-14T10:02:26;9.70;99.90
8888;DHT22;4480;52.370;9.748;2024-02-14T10:04:53;9.80;99.90
8888;DHT22;4480;52.370;9.748;2024-02-14T10:07:19;9.80;99.90
8888;DHT22;4480;52.370;9.748;2024-02-14T10:09:46;9.90;99.90
8888;DHT22;4480;52.370;9.748;2024-02-14T10:12:15;9.90;99.90
8888;DHT22;4480;52.370;9.748;2024-02-14T10:14:43;10.00;99.90
8888;DHT22;4480;52.370;9.748;2024-02-14T10:17:17;10.00;99.90
8888;DHT22;4480;52.370;9.748;2024-02-14T10:19:55;10.00;99.90
8888;DHT22;4480;52.370;9.748;2024-02-14T10:22:21;10.00;99.90
8888;DHT22;4480;52.370;9.748;2024-02-14T10:24:48;10.00;99.90
8888;DHT22;4480;52.370;9.748;2024-02-14T10:27:16;10.10;99.90
8888;DHT22;4480;52.370;9.748;2024-02-14T10:29:43;10.10;99.90
8888;DHT22;4480;52.370;9.748;2024-02-14T10:32:10;10.10;99.90
8888;DHT22;4480;52.370;9.748;2024-02-14T10:34:37;10.20;99.90
8888;DHT22;4480;52.370;9.748;2024-02-14T10:37:06;10.20;99.90
8888;DHT22;4480;52.370;9.748;2024-02-14T10:39:35;10.20;99.90
8888;DHT22;4480;52.370;9.748;2024-02-14T10:42:04;10.20;99.90
8888;DHT22;4480;52.370;9.748;2024-02-14T10:44:34;10.30;99.90
8888;DHT22;4480;52.370;9.748;2024-02-14T10:47:03;10.30;99.90
8888;DHT22;4480;52.370;9.748;2024-02-14T10:49:33;10.30;99.90
8888;DHT22;4480;52.370;9.748;2024-02-14T10:52:02;10.30;99.90
8888;DHT22;4480;52.370;9.748;2024-02-14T10:54:33;10.30;99.90
8888;DHT22;4480;52.370;9.748;2024-02-14T10:57:05;10.30;99.90
8888;DHT22;4480;52.370;9.748;2024-02-14T10:59:40;10.40;99.90
8888;DHT22;4480;52.370;9.748;2024-02-14T11:02:08;10.40;99.90
8888;DHT22;4480;52.370;9.748;2024-02-14T11:04:35;10.40;99.90
8888;DHT22;4480;52.370;9.748;2024-02-14T11:07:02;10.40;99.90
8888;DHT22;4480;52.370;9.748;2024-02-14T11:09:32;10.50;99.90
8888;DHT22;4480;52.370;9.748;2024-02-14T11:12:00;10.50;99.90
8888;DHT22;4480;52.370;9.748;2024-02-14T11:14:31;10.50;99.90
8888;DHT22;4480;52.370;9.748;2024-02-14T11:16:59;10.60;99.90
8888;DHT22;4480;52.370;9.748;2024-02-14T11:19:31;10.60;99.90
8888;DHT22;4480;52.370;9.748;2024-02-14T11:21:59;10.70;99.90
8888;DHT22;4480;52.370;9.748;2024-02-14T11:24:36;10.80;99.90
8888;DHT22;4480;52.370;9.748;2024-02-14T11:27:04;10.80;99.90
8888;DHT22;4480;52.370;9.748;2024-02-14T11:29:35;10.90;99.90
8888;DHT22;4480;52.370;9.748;2024-02-14T11:32:06;11.00;99.90
8888;DHT22;4480;52.370;9.748;2024-02-14T11:34:35;11.00;99.90
8888;DHT22;4480;52.370;9.748;2024-02-14T11:37:02;11.00;99.90
8888;DHT22;4480;52.370;9.748;2024-02-14T11:39:29;11.10;99.90
8888;DHT22;4480;52.370;9.748;2024-02-14T11:41:58;11.10;99.90
8888;DHT22;4480;52.370;9.748;2024-02-14T11:44:25;11.10;99.90
8888;DHT22;4480;52.370;9.748;2024-02-14T11:46:52;11.20;99.90
8888;DHT22;4480;52.370;9.748;2024-02-14T11:49:20;11.30;99.90
8888;DHT22;4480;52.370;9.748;2024-02-14T11:51:48;11.30;99.90
8888;DHT22;4480;52.370;9.748;2024-02-14T11:54:15;11.30;99.90
8888;DHT22;4480;52.370;9.748;2024-02-14T11:56:43;11.40;99.90
8888;DHT22;4480;52.370;9.748;2024-02-14T11:59:10;11.40;99.90
8888;DHT22;4480;52.370;9.748;2024-02-14T12:01:37;11.40;99.90
8888;DHT22;4480;52.370;9.748;2024-02-14T12:04:05;11.40;99.90
8888;DHT22;4480;52.370;9.748;2024-02-14T12:06:35;11.40;99.90
8888;DHT22;4480;52.370;9.748;2024-02-14T12:09:03;11.40;99.90
8888;DHT22;4480;52.370;9.748;2024-02-14T12:11:31;11.40;99.90
8888;DHT22;4480;52.370;9.748;2024-02-14T12:14:01;11.40;99.90
8888;DHT22;4480;52.370;9.748;2024-02-14T12:16:29;11.40;99.90
8888;DHT22;4480;52.370;9.748;2024-02-14T12:19:04;11.40;99.90
8888;DHT22;4480;52.370;9.748;2024-02-14T12:21:35;11.40;99.90
8888;DHT22;4480;52.370;9.748;2024-02-14T12:24:04;11.30;99.90
8888;DHT22;4480;52.370;9.748;2024-02-14T12:26:31;11.20;99.90
8888;DHT22;4480;52.370;9.748;2024-02-14T12:28:58;11.20;99.90
8888;DHT22;4480;52.370;9.748;2024-02-14T12:31:27;11.20;99.90
8888;DHT22;4480;52.370;9.748;2024-02-14T12:33:56;11.20;99.90
8888;DHT22;4480;52.370;9.748;2024-02-14T12:36:25;11.20;99.90
8888;DHT22;4480;52.370;9.748;2024-02-14T12:38:53;11.20;99.90
8888;DHT22;4480;52.370;9.748;2024-02-14T12:41:21;11.20;99.90
8888;DHT22;4480;52.370;9.748;2024-02-14T12:43:49;11.20;99.90
8888;DHT22;4480;52.370;9.748;2024-02-14T12:46:16;11.20;99.90
8888;DHT22;4480;52.370;9.748;2024-02-14T12:48:43;11.20;99.90
8888;DHT22;4480;52.370;9.748;2024-02-14T12:51:10;11.30;99.90
8888;DHT22;4480;52.370;9.748;2024-02-14T12:53:37;11.30;99.90
8888;DHT22;4480;52.370;9.748;2024-02-14T12:56:06;11.30;99.90
8888;DHT22;4480;52.370;9.748;2024-02-14T12:58:33;11.30;99.90
8888;DHT22;4480;52.370;9.748;2024-02-14T13:01:00;11.30;99.90
8888;DHT22;4480;52.370;9.748;2024-02-14T13:03:31;11.30;99.90
8888;DHT22;4480;52.370;9.748;2024-02-14T13:05:59;11.30;99.90
8888;DHT22;4480;52.370;9.748;2024-02-14T13:08:26;11.30;99.90
8888;DHT22;4480;52.370;9.748;2024-02-14T13:10:52;11.30;99.90
8888;DHT22;4480;52.370;9.748;2024-02-14T13:13:21;11.30;99.90
8888;DHT22;4480;52.370;9.748;2024-02-14T13:15:47;11.40;99.90
8888;DHT22;4480;52.370;9.748;2024-02-14T13:18:14;11.40;99.90
8888;DHT22;4480;52.370;9.748;2024-02-14T13:20:42;11.40;99.90
8888;DHT22;4480;52.370;9.748;2024-02-14T13:23:09;11.40;99.90
8888;DHT22;4480;52.370;9.748;2024-02-14T13:25:36;11.40;99.90
8888;DHT22;4480;52.370;9.748;2024-02-14T13:28:04;11.40;99.90
8888;DHT22;4480;52.370;9.748;2024-02-14T13:30:32;11.40;99.90
8888;DHT22;4480;52.370;9.748;2024-02-14T13:32:59;11.40;99.90
8888;DHT22;4480;52.370;9.748;2024-02-14T13:35:25;11.30;99.90
8888;DHT22;4480;52.370;9.748;2024-02-14T13:37:53;11.30;99.90
8888;DHT22;4480;52.370;9.748;2024-02-14T13:40:19;11.30;99.90
8888;DHT22;4480;52.370;9.748;2024-02-14T13:42:46;11.30;99.90
8888;DHT22;4480;52.370;9.748;2024-02-14T13:45:13;11.30;99.90
8888;DHT22;4480;52.370;9.748;2024-02-14T13:47:42;11.40;99.90
8888;DHT22;4480;52.370;9.748;2024-02-14T13:50:10;11.30;99.90
8888;DHT22;4480;52.370;9.748;2024-02-14T13:52:37;11.40;99.90
8888;DHT22;4480;52.370;9.748;2024-02-14T13:55:05;11.40;99.90
8888;DHT22;4480;52.370;9.748;2024-02-14T13:57:35;11.40;99.90
8888;DHT22;4480;52.370;9.748;2024-02-14T14:00:04;11.40;99.90
8888;DHT22;4480;52.370;9.748;2024-02-14T14:02:31;11.50;99.90
8888;DHT22;4480;52.370;9.748;2024-02-14T14:04:59;11.40;99.90
8888;DHT22;4480;52.370;9.748;2024-02-14T14:07:25;11.50;99.90
8888;DHT22;4480;52.370;9.748;2024-02-14T14:09:52;11.50;99.90
8888;DHT22;4480;52.370;9.748;2024-02-14T14:12:19;11.40;99.90
8888;DHT22;4480;52.370;9.748;2024-02-14T14:14:46;11.40;99.90
8888;DHT22;4480;52.370;9.748;2024-02-14T14:17:14;11.40;99.90
8888;DHT22;4480;52.370;9.748;2024-02-14T14:19:40;11.40;99.90
8888;DHT22;4480;52.370;9.748;2024-02-14T14:22:08;11.50;99.90
8888;DHT22;4480;52.370;9.748;2024-02-14T14:24:35;11.50;99.90
8888;DHT22;4480;52.370;9.748;2024-02-14T14:27:02;11.40;99.90
8888;DHT22;4480;52.370;9.748;2024-02-14T14:29:29;11.40;99.90
8888;DHT22;4480;52.370;9.748;2024-02-14T14:31:57;11.50;99.90
8888;DHT22;4480;52.370;9.748;2024-02-14T14:34:24;11.40;99.90
8888;DHT22;4480;52.370;9.748;2024-02-14T14:36:52;11.40;99.90
8888;DHT22;4480;52.370;9.748;2024-02-14T14:39:21;11.30;99.90
8888;DHT22;4480;52.370;9.748;2024-02-14T14:41:48;11.30;99.90
8888;DHT22;4480;52.370;9.748;2024-02-14T14:44:16;11.30;99.90
8888;DHT22;4480;52.370;9.748;2024-02-14T14:46:43;11.30;99.90
8888;DHT22;4480;52.370;9.748;2024-02-14T14:49:10;11.30;99.90
8888;DHT22;4480;52.370;9.748;2024-02-14T14:51:37;11.20;99.90
8888;DHT22;4480;52.370;9.748;2024-02-14T14:54:04;11.20;99.90
8888;DHT22;4480;52.370;9.748;2024-02-14T14:56:33;11.10;99.90
8888;DHT22;4480;52.370;9.748;2024-02-14T14:59:00;11.10;99.90
8888;DHT22;4480;52.370;9.748;2024-02-14T15:01:29;11.10;99.90
8888;DHT22;4480;52.370;9.748;2024-02-14T15:03:56;11.00;99.90
8888;DHT22;4480;52.370;9.748;2024-02-14T15:06:22;11.00;99.90
8888;DHT22;4480;52.370;9.748;2024-02-14T15:08:49;10.90;99.90
8888;DHT22;4480;52.370;9.748;2024-02-14T15:11:16;10.90;99.90
8888;DHT22;4480;52.370;9.748;2024-02-14T15:13:45;10.90;99.90
8888;DHT22;4480;52.370;9.748;2024-02-14T15:16:12;10.90;99.90
8888;DHT22;4480;52.370;9.748;2024-02-14T15:18:39;10.80;99.90
8888;DHT22;4480;52.370;9.748;2024-02-14T15:21:08;10.80;99.90
8888;DHT22;4480;52.370;9.748;2024-02-14T15:23:35;10.80;99.90
8888;DHT22;4480;52.370;9.748;2024-02-14T15:26:02;10.80;99.90
8888;DHT22;4480;52.370;9.748;2024-02-14T15:28:31;10.70;99.90
8888;DHT22;4480;52.370;9.748;2024-02-14T15:31:01;10.70;99.90
8888;DHT22;4480;52.370;9.748;2024-02-14T15:33:45;10.70;99.90
8888;DHT22;4480;52.370;9.748;2024-02-14T15:36:12;10.60;99.90
8888;DHT22;4480;52.370;9.748;2024-02-14T15:38:41;10.60;99.90
8888;DHT22;4480;52.370;9.748;2024-02-14T15:41:08;10.60;99.90
8888;DHT22;4480;52.370;9.748;2024-02-14T15:43:35;10.60;99.90
8888;DHT22;4480;52.370;9.748;2024-02-14T15:46:03;10.60;99.90
8888;DHT22;4480;52.370;9.748;2024-02-14T15:48:30;10.60;99.90
8888;DHT22;4480;52.370;9.748;2024-02-14T15:50:58;10.60;99.90
8888;DHT22;4480;52.370;9.748;2024-02-14T15:53:25;10.60;99.90
8888;DHT22;4480;52.370;9.748;2024-02-14T15:55:52;10.50;99.90
8888;DHT22;4480;52.370;9.748;2024-02-14T15:58:19;10.50;99.90
8888;DHT22;4480;52.370;9.748;2024-02-14T16:00:46;10.50;99.90
8888;DHT22;4480;52.370;9.748;2024-02-14T16:03:14;10.50;99.90
8888;DHT22;4480;52.370;9.748;2024-02-14T16:05:40;10.50;99.90
8888;DHT22;4480;52.370;9.748;2024-02-14T16:08:14;10.50;99.90
8888;DHT22;4480;52.370;9.748;2024-02-14T16:10:41;10.50;99.90
8888;DHT22;4480;52.370;9.748;2024-02-14T16:13:09;10.50;99.90
8888;DHT22;4480;52.370;9.748;2024-02-14T16:15:36;10.50;99.90